createdAt,value
2023-03-26T00:02:09.662Z,87.77
2023-03-26T00:04:38.716Z,86.86
2023-03-26T00:07:10.600Z,88.00
2023-03-26T00:09:39.059Z,89.86
2023-03-26T00:12:12.275Z,89.07
2023-03-26T00:14:41.248Z,87.38
2023-03-26T00:17:09.924Z,87.40
2023-03-26T00:19:43.432Z,88.57
2023-03-26T00:22:14.367Z,89.83
2023-03-26T00:24:46.223Z,88.56
2023-03-26T00:27:20.850Z,87.56
2023-03-26T00:29:49.963Z,87.83
2023-03-26T00:32:18.838Z,88.23
2023-03-26T00:34:48.283Z,88.51
2023-03-26T00:37:16.852Z,87.07
2023-03-26T00:39:49.506Z,86.06
2023-03-26T00:42:19.112Z,86.32
2023-03-26T00:44:47.715Z,87.47
2023-03-26T00:47:17.099Z,87.77
2023-03-26T00:49:47.112Z,86.24
2023-03-26T00:52:19.157Z,86.04
2023-03-26T00:54:51.760Z,86.51
2023-03-26T00:57:32.976Z,87.79
2023-03-26T01:00:17.168Z,88.00
2023-03-26T01:02:47.316Z,86.10
2023-03-26T01:05:42.931Z,86.44
2023-03-26T01:08:34.844Z,87.10
2023-03-26T01:11:07.599Z,88.01
2023-03-26T01:13:38.327Z,86.93
2023-03-26T01:16:09.958Z,85.93
2023-03-26T01:18:43.197Z,86.24
2023-03-26T01:21:14.771Z,88.13
2023-03-26T01:23:49.126Z,88.90
2023-03-26T01:26:23.492Z,89.17
2023-03-26T01:28:55.554Z,87.36
2023-03-26T01:31:37.252Z,86.48
2023-03-26T01:34:21.602Z,86.98
2023-03-26T01:37:08.938Z,87.66
2023-03-26T01:39:49.817Z,89.43
2023-03-26T01:42:26.177Z,88.70
2023-03-26T01:45:01.555Z,87.49
2023-03-26T01:47:30.428Z,87.95
2023-03-26T01:49:59.110Z,89.28
2023-03-26T01:52:27.872Z,90.45
2023-03-26T01:54:56.286Z,88.90
2023-03-26T01:57:53.309Z,88.11
2023-03-26T02:00:39.197Z,88.48
2023-03-26T02:03:31.602Z,89.48
2023-03-26T02:06:25.881Z,88.04
2023-03-26T02:09:01.615Z,86.23
2023-03-26T02:11:35.436Z,86.57
2023-03-26T02:14:08.958Z,87.54
2023-03-26T02:16:37.490Z,87.93
2023-03-26T02:19:15.938Z,86.33
2023-03-26T02:21:46.189Z,85.92
2023-03-26T02:24:14.898Z,86.77
2023-03-26T02:26:44.892Z,87.32
2023-03-26T02:29:15.108Z,87.88
2023-03-26T02:31:48.620Z,86.10
2023-03-26T02:34:17.556Z,85.41
2023-03-26T02:36:53.200Z,85.93
2023-03-26T02:39:22.155Z,86.81
2023-03-26T02:42:03.494Z,87.49
2023-03-26T02:44:35.321Z,85.78
2023-03-26T02:47:03.976Z,84.68
2023-03-26T02:49:51.193Z,85.03
2023-03-26T02:52:24.999Z,86.01
2023-03-26T02:54:56.542Z,86.94
2023-03-26T02:57:26.909Z,86.22
2023-03-26T03:00:09.235Z,84.37
2023-03-26T03:02:41.474Z,84.19
2023-03-26T03:05:31.847Z,85.25
2023-03-26T03:08:23.112Z,86.94
2023-03-26T03:11:13.151Z,86.57
2023-03-26T03:13:51.265Z,85.07
2023-03-26T03:16:30.824Z,84.89
2023-03-26T03:19:02.142Z,85.54
2023-03-26T03:21:38.812Z,86.90
2023-03-26T03:24:09.893Z,86.40
2023-03-26T03:26:42.561Z,85.29
2023-03-26T03:29:30.807Z,85.46
2023-03-26T03:32:02.338Z,86.29
2023-03-26T03:34:50.063Z,87.11
2023-03-26T03:37:19.316Z,86.21
2023-03-26T03:39:53.470Z,84.71
2023-03-26T03:42:22.932Z,84.87
2023-03-26T03:52:12.088Z,85.03
2023-03-26T03:54:42.630Z,84.79
2023-03-26T03:57:35.571Z,85.58
2023-03-26T04:00:12.054Z,86.54
2023-03-26T04:02:50.397Z,85.06
2023-03-26T04:05:19.139Z,84.26
2023-03-26T04:07:50.485Z,84.83
2023-03-26T04:10:24.914Z,85.65
2023-03-26T04:13:12.759Z,86.15
2023-03-26T04:16:01.579Z,84.15
2023-03-26T04:18:34.907Z,83.79
2023-03-26T04:21:09.622Z,84.74
2023-03-26T04:23:38.507Z,85.67
2023-03-26T04:26:17.846Z,86.44
2023-03-26T04:29:04.961Z,84.72
2023-03-26T04:31:40.145Z,84.76
2023-03-26T04:34:14.562Z,85.91
2023-03-26T04:36:54.965Z,87.35
2023-03-26T04:39:29.360Z,86.43
2023-03-26T04:42:33.626Z,85.35
2023-03-26T04:45:22.840Z,85.93
2023-03-26T04:47:58.780Z,87.20
2023-03-26T04:50:27.139Z,87.78
2023-03-26T04:52:57.035Z,86.16
2023-03-26T04:55:56.372Z,84.78
2023-03-26T04:58:45.251Z,85.49
2023-03-26T05:01:16.850Z,85.99
2023-03-26T05:03:46.600Z,85.93
2023-03-26T05:06:16.490Z,83.96
2023-03-26T05:08:45.271Z,83.05
2023-03-26T05:11:21.433Z,83.48
2023-03-26T05:13:50.327Z,84.18
2023-03-26T05:16:19.392Z,84.78
2023-03-26T05:19:07.352Z,83.26
2023-03-26T05:21:36.456Z,82.84
2023-03-26T05:24:10.975Z,83.30
2023-03-26T05:26:39.459Z,83.93
2023-03-26T05:29:08.149Z,84.81
2023-03-26T05:31:43.172Z,82.74
2023-03-26T05:34:11.552Z,80.61
2023-03-26T05:36:44.340Z,80.70
2023-03-26T05:39:34.116Z,81.63
2023-03-26T05:42:45.746Z,82.86
2023-03-26T05:45:31.800Z,83.33
2023-03-26T05:48:01.854Z,81.73
2023-03-26T05:50:30.720Z,80.48
2023-03-26T05:53:10.050Z,81.12
2023-03-26T05:56:00.335Z,81.79
2023-03-26T05:58:38.338Z,82.08
2023-03-26T06:01:26.378Z,81.31
2023-03-26T06:04:24.271Z,80.13
2023-03-26T06:07:17.105Z,79.39
2023-03-26T06:09:52.340Z,80.43
2023-03-26T06:12:22.254Z,80.72
2023-03-26T06:14:56.878Z,81.76
2023-03-26T06:17:36.553Z,80.36
2023-03-26T06:20:16.071Z,79.06
2023-03-26T06:22:49.360Z,81.01
2023-03-26T06:25:23.167Z,80.74
2023-03-26T06:28:09.164Z,81.41
2023-03-26T06:31:03.992Z,81.66
2023-03-26T06:33:44.932Z,80.71
2023-03-26T06:36:14.869Z,80.44
2023-03-26T06:38:43.772Z,81.07
2023-03-26T06:41:13.552Z,80.96
2023-03-26T06:43:57.501Z,81.49
2023-03-26T06:46:49.025Z,79.22
2023-03-26T06:49:45.408Z,78.62
2023-03-26T06:52:56.027Z,80.11
2023-03-26T06:55:34.133Z,79.69
2023-03-26T06:58:32.301Z,80.62
2023-03-26T07:01:19.886Z,79.18
2023-03-26T07:04:07.616Z,76.99
2023-03-26T07:06:56.221Z,78.17
2023-03-26T07:09:43.441Z,77.84
2023-03-26T07:12:31.265Z,78.01
2023-03-26T07:15:36.616Z,77.92
2023-03-26T07:18:23.634Z,77.40
2023-03-26T07:20:54.269Z,76.69
2023-03-26T07:23:23.977Z,77.34
2023-03-26T07:25:59.773Z,77.48
2023-03-26T07:28:42.320Z,76.47
2023-03-26T07:31:58.240Z,76.49
2023-03-26T07:34:37.089Z,75.86
2023-03-26T07:37:23.909Z,75.73
2023-03-26T07:40:34.946Z,76.58
2023-03-26T07:43:49.105Z,78.42
2023-03-26T07:46:39.520Z,77.00
2023-03-26T07:49:29.989Z,75.42
2023-03-26T07:52:14.228Z,74.44
2023-03-26T07:54:56.641Z,74.52
2023-03-26T07:57:47.766Z,76.21
2023-03-26T08:01:17.260Z,75.82
2023-03-26T08:04:24.841Z,76.74
2023-03-26T08:07:34.299Z,72.14
2023-03-26T08:10:24.123Z,71.94
2023-03-26T08:13:20.718Z,73.20
2023-03-26T08:15:54.260Z,71.82
2023-03-26T08:18:35.991Z,73.55
2023-03-26T08:21:17.725Z,71.36
2023-03-26T08:24:11.854Z,71.69
2023-03-26T08:26:57.774Z,73.05
2023-03-26T08:29:50.230Z,75.09
2023-03-26T08:32:19.835Z,72.58
2023-03-26T08:34:48.610Z,71.76
2023-03-26T08:37:17.398Z,68.24
2023-03-26T08:39:46.294Z,68.17
2023-03-26T08:42:33.408Z,68.73
2023-03-26T08:45:11.305Z,66.01
2023-03-26T08:48:11.633Z,65.20
2023-03-26T08:50:43.292Z,64.96
2023-03-26T08:53:30.718Z,65.18
2023-03-26T08:56:26.441Z,66.97
2023-03-26T08:59:41.921Z,69.44
2023-03-26T09:02:33.564Z,70.38
2023-03-26T09:05:21.286Z,70.83
2023-03-26T09:07:49.964Z,71.09
2023-03-26T09:10:36.776Z,69.79
2023-03-26T09:13:53.803Z,66.64
2023-03-26T09:16:51.478Z,68.07
2023-03-26T09:19:26.081Z,69.50
2023-03-26T09:22:06.657Z,69.46
2023-03-26T09:24:57.449Z,69.97
2023-03-26T09:27:39.041Z,69.18
2023-03-26T09:30:26.671Z,68.56
2023-03-26T09:33:11.956Z,69.01
2023-03-26T09:36:17.905Z,69.63
2023-03-26T09:38:53.962Z,67.31
2023-03-26T09:41:39.443Z,65.83
2023-03-26T09:44:33.014Z,65.71
2023-03-26T09:47:10.914Z,61.93
2023-03-26T09:50:04.789Z,62.11
2023-03-26T10:00:36.703Z,56.87
2023-03-26T10:03:08.713Z,60.20
2023-03-26T10:06:07.385Z,60.89
2023-03-26T10:09:17.944Z,60.11
2023-03-26T10:12:19.840Z,59.80
2023-03-26T10:15:23.949Z,60.42
2023-03-26T10:18:27.341Z,59.22
2023-03-26T10:21:05.563Z,56.40
2023-03-26T10:23:58.184Z,57.29
2023-03-26T10:27:08.482Z,57.16
2023-03-26T10:30:04.670Z,58.64
2023-03-26T10:32:49.368Z,57.79
2023-03-26T10:35:33.398Z,54.41
2023-03-26T10:38:24.474Z,54.64
2023-03-26T10:41:04.754Z,56.37
2023-03-26T10:43:36.686Z,56.97
2023-03-26T10:46:31.785Z,54.26
2023-03-26T10:49:28.639Z,53.46
2023-03-26T10:52:03.796Z,52.51
2023-03-26T10:54:38.606Z,52.01
2023-03-26T10:57:13.410Z,50.09
2023-03-26T10:59:41.968Z,51.30
2023-03-26T11:02:30.085Z,50.36
2023-03-26T11:05:17.822Z,52.74
2023-03-26T11:07:54.093Z,53.06
2023-03-26T11:10:30.622Z,49.72
2023-03-26T11:13:19.381Z,51.09
2023-03-26T11:16:02.487Z,49.22
2023-03-26T11:18:32.120Z,51.24
2023-03-26T11:21:19.899Z,52.82
2023-03-26T11:24:22.022Z,52.55
2023-03-26T11:26:57.245Z,54.24
2023-03-26T11:29:53.189Z,54.31
2023-03-26T11:32:27.740Z,52.11
2023-03-26T11:35:02.538Z,52.04
2023-03-26T11:37:48.291Z,52.62
2023-03-26T11:40:24.489Z,52.71
2023-03-26T11:42:56.406Z,53.55
2023-03-26T11:45:26.820Z,54.06
2023-03-26T11:48:28.134Z,55.66
2023-03-26T11:51:08.526Z,54.78
2023-03-26T11:53:39.943Z,55.45
2023-03-26T11:56:28.082Z,55.48
2023-03-26T11:59:01.479Z,56.67
2023-03-26T12:01:41.133Z,55.05
2023-03-26T12:04:14.772Z,55.46
2023-03-26T12:06:56.744Z,57.09
2023-03-26T12:09:26.104Z,56.99
2023-03-26T12:12:03.846Z,57.63
2023-03-26T12:14:34.745Z,56.69
2023-03-26T12:17:07.948Z,56.17
2023-03-26T12:19:42.071Z,56.47
2023-03-26T12:22:32.103Z,56.67
2023-03-26T12:25:25.123Z,57.06
2023-03-26T12:28:04.012Z,56.33
2023-03-26T12:30:40.059Z,52.91
2023-03-26T12:33:34.524Z,53.52
2023-03-26T12:36:24.967Z,55.84
2023-03-26T12:39:16.244Z,56.22
2023-03-26T12:44:42.694Z,58.35
2023-03-26T12:44:58.862Z,61.01
2023-03-26T12:48:00.104Z,65.81
2023-03-26T12:50:34.905Z,66.61
2023-03-26T12:53:26.813Z,65.43
2023-03-26T12:56:01.864Z,59.92
2023-03-26T12:58:55.331Z,61.82
2023-03-26T13:01:28.297Z,62.54
2023-03-26T13:04:13.885Z,63.12
2023-03-26T13:07:01.759Z,63.38
2023-03-26T13:10:21.304Z,62.97
2023-03-26T13:12:52.970Z,60.83
2023-03-26T13:15:37.935Z,61.04
2023-03-26T13:18:54.838Z,61.31
2023-03-26T13:21:46.359Z,59.55
2023-03-26T13:24:26.549Z,58.49
2023-03-26T13:27:21.107Z,57.77
2023-03-26T13:30:16.214Z,57.77
2023-03-26T13:33:21.762Z,58.87
2023-03-26T13:36:27.613Z,59.77
2023-03-26T13:39:16.591Z,60.16
2023-03-26T13:41:49.263Z,60.33
2023-03-26T13:44:30.340Z,60.68
2023-03-26T13:47:08.296Z,63.60
2023-03-26T13:49:53.819Z,66.00
2023-03-26T13:52:49.440Z,67.44
2023-03-26T13:55:36.459Z,66.37
2023-03-26T13:58:15.041Z,65.96
2023-03-26T14:00:45.603Z,65.93
2023-03-26T14:03:45.792Z,66.29
2023-03-26T14:06:46.929Z,66.01
2023-03-26T14:09:24.787Z,62.84
2023-03-26T14:12:21.185Z,61.39
2023-03-26T14:14:59.426Z,60.50
2023-03-26T14:17:38.728Z,58.56
2023-03-26T14:20:16.146Z,58.10
2023-03-26T14:23:15.345Z,57.75
2023-03-26T14:26:01.370Z,57.67
2023-03-26T14:28:52.342Z,57.52
2023-03-26T14:31:58.139Z,57.41
2023-03-26T14:34:35.491Z,56.86
2023-03-26T14:37:27.935Z,56.25
2023-03-26T14:40:22.319Z,57.60
2023-03-26T14:43:09.818Z,58.38
2023-03-26T14:46:09.578Z,58.98
2023-03-26T14:48:50.750Z,60.08
2023-03-26T14:51:54.657Z,60.30
2023-03-26T14:54:27.537Z,60.99
2023-03-26T14:57:28.256Z,61.53
2023-03-26T15:00:22.670Z,61.37
2023-03-26T15:03:09.898Z,62.74
2023-03-26T15:05:54.247Z,62.83
2023-03-26T15:08:45.144Z,64.31
2023-03-26T15:11:21.233Z,65.84
2023-03-26T15:14:18.569Z,67.33
2023-03-26T15:17:10.003Z,68.81
2023-03-26T15:19:47.171Z,68.69
2023-03-26T15:22:52.404Z,69.43
2023-03-26T15:25:43.104Z,70.85
2023-03-26T15:28:50.814Z,71.20
2023-03-26T15:31:42.794Z,71.65
2023-03-26T15:34:31.392Z,71.59
2023-03-26T15:37:43.692Z,71.61
2023-03-26T15:40:34.190Z,71.10
2023-03-26T15:43:13.333Z,67.05
2023-03-26T15:46:12.970Z,66.25
2023-03-26T15:48:53.610Z,67.19
2023-03-26T15:51:26.483Z,66.88
2023-03-26T15:54:23.762Z,66.59
2023-03-26T15:57:26.360Z,66.83
2023-03-26T16:01:51.787Z,67.88
2023-03-26T16:04:50.471Z,68.89
2023-03-26T16:07:48.489Z,69.65
2023-03-26T16:10:34.496Z,70.10
2023-03-26T16:13:15.582Z,70.66
2023-03-26T16:16:04.419Z,68.85
2023-03-26T16:18:38.438Z,67.39
2023-03-26T16:21:31.361Z,67.29
2023-03-26T16:24:04.177Z,67.71
2023-03-26T16:26:51.500Z,68.38
2023-03-26T16:29:22.472Z,69.09
2023-03-26T16:32:16.006Z,69.60
2023-03-26T16:35:05.584Z,69.75
2023-03-26T16:37:44.103Z,69.76
2023-03-26T16:40:20.806Z,70.58
2023-03-26T16:43:20.804Z,70.95
2023-03-26T16:46:07.924Z,70.39
2023-03-26T16:49:15.098Z,68.51
2023-03-26T16:51:59.148Z,67.70
2023-03-26T16:54:32.663Z,68.14
2023-03-26T16:57:19.357Z,68.78
2023-03-26T17:00:13.862Z,69.24
2023-03-26T17:03:13.538Z,69.86
2023-03-26T17:05:56.877Z,70.74
2023-03-26T17:08:36.227Z,71.37
2023-03-26T17:11:08.797Z,71.85
2023-03-26T17:14:03.806Z,71.61
2023-03-26T17:16:46.116Z,69.87
2023-03-26T17:19:32.532Z,69.23
2023-03-26T17:22:20.525Z,69.23
2023-03-26T17:24:57.525Z,69.41
2023-03-26T17:27:51.401Z,70.14
2023-03-26T17:30:58.421Z,70.67
2023-03-26T17:33:31.794Z,71.69
2023-03-26T17:36:12.852Z,73.78
2023-03-26T17:38:48.403Z,73.82
2023-03-26T17:41:53.332Z,73.09
2023-03-26T17:44:41.087Z,73.31
2023-03-26T17:47:20.935Z,74.40
2023-03-26T17:49:51.362Z,74.80
2023-03-26T17:52:23.156Z,75.70
2023-03-26T17:54:52.316Z,76.35
2023-03-26T17:57:44.942Z,74.13
2023-03-26T18:00:20.383Z,71.70
2023-03-26T18:02:54.878Z,71.23
2023-03-26T18:05:25.802Z,70.75
2023-03-26T18:08:09.783Z,71.35
2023-03-26T18:11:01.823Z,72.10
2023-03-26T18:13:45.770Z,73.11
2023-03-26T18:16:21.364Z,73.71
2023-03-26T18:19:00.739Z,75.01
2023-03-26T18:21:37.262Z,74.72
2023-03-26T18:24:15.248Z,73.14
2023-03-26T18:26:49.847Z,72.59
2023-03-26T18:29:31.129Z,72.79
2023-03-26T18:32:02.645Z,73.72
2023-03-26T18:34:33.626Z,74.54
2023-03-26T18:37:17.256Z,75.59
2023-03-26T18:39:59.346Z,76.12
2023-03-26T18:42:29.773Z,75.50
2023-03-26T18:45:03.977Z,74.38
2023-03-26T18:47:37.223Z,73.97
2023-03-26T18:50:07.254Z,73.81
2023-03-26T18:52:36.013Z,74.05
2023-03-26T18:55:05.084Z,74.39
2023-03-26T18:57:33.664Z,74.45
2023-03-26T19:00:17.472Z,74.64
2023-03-26T19:02:52.034Z,74.16
2023-03-26T19:05:21.336Z,72.30
2023-03-26T19:07:50.221Z,71.62
2023-03-26T19:10:22.493Z,71.60
2023-03-26T19:12:56.897Z,72.11
2023-03-26T19:15:30.730Z,72.39
2023-03-26T19:18:07.301Z,73.05
2023-03-26T19:20:40.813Z,73.60
2023-03-26T19:23:13.665Z,74.25
2023-03-26T19:25:48.360Z,73.78
2023-03-26T19:28:22.416Z,72.13
2023-03-26T19:30:57.779Z,71.34
2023-03-26T19:33:36.768Z,71.40
2023-03-26T19:36:18.424Z,71.89
2023-03-26T19:38:52.646Z,72.37
2023-03-26T19:41:26.179Z,73.04
2023-03-26T19:43:55.841Z,73.39
2023-03-26T19:46:26.381Z,74.24
2023-03-26T19:48:56.587Z,74.83
2023-03-26T19:51:32.266Z,74.72
2023-03-26T19:54:19.842Z,72.48
2023-03-26T19:56:48.474Z,71.78
2023-03-26T19:59:25.199Z,71.87
2023-03-26T20:01:53.672Z,72.16
2023-03-26T20:04:22.245Z,72.84
2023-03-26T20:06:53.017Z,73.28
2023-03-26T20:09:21.768Z,73.65
2023-03-26T20:11:52.801Z,74.00
2023-03-26T20:14:26.266Z,73.93
2023-03-26T20:16:55.887Z,72.43
2023-03-26T20:19:26.028Z,71.44
2023-03-26T20:21:55.897Z,71.57
2023-03-26T20:24:25.139Z,71.94
2023-03-26T20:26:53.925Z,72.39
2023-03-26T20:29:23.640Z,73.22
2023-03-26T20:31:52.030Z,74.05
2023-03-26T20:34:23.516Z,74.90
2023-03-26T20:37:01.266Z,74.45
2023-03-26T20:39:30.273Z,72.34
2023-03-26T20:42:00.985Z,71.70
2023-03-26T20:44:31.110Z,72.12
2023-03-26T20:46:59.433Z,72.72
2023-03-26T20:49:29.398Z,73.40
2023-03-26T20:51:57.873Z,74.04
2023-03-26T20:54:30.511Z,74.79
2023-03-26T20:56:59.173Z,75.20
2023-03-26T20:59:33.061Z,74.58
2023-03-26T21:02:02.101Z,73.01
2023-03-26T21:04:32.376Z,72.17
2023-03-26T21:07:10.947Z,72.39
2023-03-26T21:09:49.306Z,72.56
2023-03-26T21:12:41.537Z,73.32
2023-03-26T21:15:22.782Z,73.85
2023-03-26T21:17:55.098Z,74.68
2023-03-26T21:20:24.593Z,74.17
2023-03-26T21:23:23.888Z,72.83
2023-03-26T21:26:25.433Z,72.25
2023-03-26T21:28:54.539Z,72.78
2023-03-26T21:31:24.518Z,73.05
2023-03-26T21:33:55.409Z,73.77
2023-03-26T21:36:24.970Z,74.85
2023-03-26T21:38:54.886Z,74.76
2023-03-26T21:41:23.299Z,74.04
2023-03-26T21:43:52.388Z,74.17
2023-03-26T21:46:22.252Z,74.04
2023-03-26T21:48:51.299Z,74.61
2023-03-26T21:51:20.286Z,76.05
2023-03-26T21:53:51.430Z,77.22
2023-03-26T21:56:34.121Z,77.43
2023-03-26T21:59:18.312Z,75.69
2023-03-26T22:02:09.924Z,74.30
2023-03-26T22:04:47.617Z,74.67
2023-03-26T22:07:18.350Z,75.58
2023-03-26T22:09:47.244Z,77.78
2023-03-26T22:12:16.867Z,78.90
2023-03-26T22:14:45.951Z,78.87
2023-03-26T22:17:14.746Z,77.55
2023-03-26T22:19:50.381Z,77.27
2023-03-26T22:22:19.680Z,77.44
2023-03-26T22:24:48.086Z,77.81
2023-03-26T22:27:17.566Z,78.74
2023-03-26T22:29:46.659Z,79.88
2023-03-26T22:32:14.952Z,79.06
2023-03-26T22:34:45.157Z,78.29
2023-03-26T22:37:13.795Z,77.79
2023-03-26T22:39:43.772Z,78.72
2023-03-26T22:42:12.757Z,79.60
2023-03-26T22:44:41.482Z,80.88
2023-03-26T22:47:10.745Z,81.29
2023-03-26T22:49:40.204Z,79.81
2023-03-26T22:52:13.737Z,79.15
2023-03-26T22:54:42.961Z,79.60
2023-03-26T22:57:12.144Z,80.49
2023-03-26T22:59:41.029Z,80.87
2023-03-26T23:02:13.299Z,80.57
2023-03-26T23:04:42.989Z,80.32
2023-03-26T23:07:12.410Z,78.14
2023-03-26T23:09:41.844Z,77.56
2023-03-26T23:12:10.196Z,77.89
2023-03-26T23:14:38.771Z,78.65
2023-03-26T23:17:07.892Z,78.92
2023-03-26T23:19:44.023Z,79.00
2023-03-26T23:22:13.235Z,79.00
2023-03-26T23:24:41.626Z,78.03
2023-03-26T23:27:11.106Z,77.40
2023-03-26T23:29:39.391Z,77.60
2023-03-26T23:32:23.997Z,79.36
2023-03-26T23:34:56.210Z,81.38
2023-03-26T23:37:24.515Z,82.28
2023-03-26T23:39:53.886Z,81.01
2023-03-26T23:42:28.229Z,80.11
2023-03-26T23:44:58.251Z,80.17
2023-03-26T23:47:34.778Z,80.76
2023-03-26T23:50:05.422Z,81.38
2023-03-26T23:52:34.374Z,81.19
2023-03-26T23:55:03.112Z,80.04
2023-03-26T23:57:32.606Z,79.73
